createdAt,value
2018-06-29T00:01:32.315Z,1011.30
2018-06-29T00:03:34.281Z,973.55
2018-06-29T00:05:36.270Z,979.40
2018-06-29T00:07:38.236Z,996.60
2018-06-29T00:09:40.213Z,981.30
2018-06-29T00:11:42.189Z,993.67
2018-06-29T00:13:44.152Z,993.17
2018-06-29T00:15:46.124Z,979.60
2018-06-29T00:17:48.096Z,977.62
2018-06-29T00:19:50.078Z,983.68
2018-06-29T00:21:52.056Z,943.15
2018-06-29T00:23:54.046Z,977.67
2018-06-29T00:25:56.029Z,974.68
2018-06-29T00:27:58.002Z,956.53
2018-06-29T00:29:59.956Z,957.25
2018-06-29T00:32:01.944Z,976.20
2018-06-29T00:34:03.944Z,961.82
2018-06-29T00:36:05.909Z,948.45
2018-06-29T00:38:07.916Z,951.70
2018-06-29T00:40:10.272Z,958.87
2018-06-29T00:42:12.138Z,943.02
2018-06-29T00:44:14.099Z,943.02
2018-06-29T00:46:16.066Z,951.10
2018-06-29T00:48:18.042Z,932.83
2018-06-29T00:50:19.998Z,942.35
2018-06-29T00:52:21.977Z,938.95
2018-06-29T00:54:23.940Z,925.75
2018-06-29T00:56:25.924Z,925.60
2018-06-29T00:58:27.900Z,919.35
2018-06-29T01:00:29.870Z,921.30
2018-06-29T01:02:31.844Z,927.58
2018-06-29T01:04:33.821Z,930.20
2018-06-29T01:06:35.789Z,920.40
2018-06-29T01:08:37.756Z,921.95
2018-06-29T01:10:39.731Z,922.38
2018-06-29T01:12:41.702Z,916.90
2018-06-29T01:14:43.694Z,926.17
2018-06-29T01:16:45.670Z,915.98
2018-06-29T01:18:47.632Z,920.85
2018-06-29T01:20:49.601Z,916.05
2018-06-29T01:22:51.564Z,906.55
2018-06-29T01:24:53.933Z,903.30
2018-06-29T01:26:55.814Z,902.75
2018-06-29T01:28:57.778Z,892.17
2018-06-29T01:30:59.749Z,896.70
2018-06-29T01:33:01.738Z,893.43
2018-06-29T01:35:03.699Z,893.85
2018-06-29T01:37:05.697Z,897.52
2018-06-29T01:39:07.661Z,886.12
2018-06-29T01:41:09.657Z,888.65
2018-06-29T01:43:11.621Z,878.48
2018-06-29T01:45:13.587Z,879.80
2018-06-29T01:47:15.585Z,878.65
2018-06-29T01:49:17.539Z,879.50
2018-06-29T01:51:19.535Z,872.93
2018-06-29T01:53:21.891Z,871.63
2018-06-29T01:55:23.880Z,871.97
2018-06-29T01:57:25.857Z,874.32
2018-06-29T01:59:27.819Z,860.75
2018-06-29T02:01:29.792Z,861.40
2018-06-29T02:03:31.769Z,859.33
2018-06-29T02:05:33.741Z,861.58
2018-06-29T02:07:35.695Z,864.93
2018-06-29T02:09:37.669Z,843.65
2018-06-29T02:11:39.643Z,849.83
2018-06-29T02:13:41.642Z,845.20
2018-06-29T02:15:43.616Z,848.80
2018-06-29T02:17:45.589Z,846.60
2018-06-29T02:19:47.569Z,845.67
2018-06-29T02:21:49.546Z,844.73
2018-06-29T02:23:51.911Z,846.27
2018-06-29T02:25:53.765Z,843.62
2018-06-29T02:27:55.745Z,833.13
2018-06-29T02:29:57.731Z,822.33
2018-06-29T02:31:59.693Z,835.65
2018-06-29T02:34:01.652Z,832.67
2018-06-29T02:36:03.631Z,823.23
2018-06-29T02:38:05.602Z,821.37
2018-06-29T02:40:07.982Z,825.98
2018-06-29T02:42:09.823Z,821.30
2018-06-29T02:44:11.789Z,822.27
2018-06-29T02:46:13.769Z,811.08
2018-06-29T02:48:15.735Z,808.77
2018-06-29T02:50:18.097Z,811.92
2018-06-29T02:52:19.973Z,803.20
2018-06-29T02:54:21.953Z,807.95
2018-06-29T02:56:23.937Z,808.50
2018-06-29T02:58:25.898Z,794.20
2018-06-29T03:00:27.875Z,807.08
2018-06-29T03:02:29.861Z,800.95
2018-06-29T03:04:31.851Z,795.92
2018-06-29T03:06:33.837Z,792.83
2018-06-29T03:08:35.821Z,778.00
2018-06-29T03:10:37.769Z,773.17
2018-06-29T03:12:39.782Z,781.00
2018-06-29T03:14:41.763Z,773.62
2018-06-29T03:16:43.731Z,764.92
2018-06-29T03:18:45.716Z,775.87
2018-06-29T03:20:47.681Z,767.30
2018-06-29T03:22:49.673Z,769.17
2018-06-29T03:24:51.636Z,768.00
2018-06-29T03:26:53.627Z,763.12
2018-06-29T03:28:55.578Z,768.42
2018-06-29T03:30:57.564Z,746.27
2018-06-29T03:32:59.565Z,756.42
2018-06-29T03:35:01.513Z,746.63
2018-06-29T03:37:03.469Z,757.98
2018-06-29T03:39:05.447Z,751.40
2018-06-29T03:41:07.426Z,743.10
2018-06-29T03:43:09.421Z,744.40
2018-06-29T03:45:11.390Z,737.48
2018-06-29T03:47:13.347Z,744.77
2018-06-29T03:49:15.326Z,734.50
2018-06-29T03:51:17.295Z,728.25
2018-06-29T03:53:19.288Z,741.20
2018-06-29T03:55:21.259Z,743.67
2018-06-29T03:57:23.223Z,740.83
2018-06-29T03:59:25.198Z,722.73
2018-06-29T04:01:27.179Z,732.58
2018-06-29T04:03:29.181Z,724.62
2018-06-29T04:05:31.160Z,727.45
2018-06-29T04:07:33.167Z,734.77
2018-06-29T04:09:35.121Z,722.27
2018-06-29T04:11:37.094Z,719.85
2018-06-29T04:13:39.054Z,723.28
2018-06-29T04:15:41.043Z,716.70
2018-06-29T04:17:43.010Z,709.63
2018-06-29T04:19:44.986Z,709.00
2018-06-29T04:21:46.950Z,704.25
2018-06-29T04:23:48.911Z,705.67
2018-06-29T04:25:50.894Z,706.05
2018-06-29T04:27:52.867Z,700.60
2018-06-29T04:29:54.852Z,696.77
2018-06-29T04:31:56.824Z,695.92
2018-06-29T04:33:58.796Z,698.05
2018-06-29T04:36:00.778Z,696.72
2018-06-29T04:38:02.752Z,692.75
2018-06-29T04:40:04.716Z,683.25
2018-06-29T04:42:06.684Z,687.52
2018-06-29T04:44:08.666Z,692.53
2018-06-29T04:46:10.640Z,685.75
2018-06-29T04:48:12.619Z,679.48
2018-06-29T04:50:14.608Z,683.72
2018-06-29T04:52:16.569Z,681.25
2018-06-29T04:54:18.538Z,666.85
2018-06-29T04:56:20.520Z,661.60
2018-06-29T04:58:22.497Z,665.42
2018-06-29T05:00:24.470Z,664.10
2018-06-29T05:02:26.439Z,661.62
2018-06-29T05:04:28.423Z,664.85
2018-06-29T05:06:30.406Z,664.42
2018-06-29T05:08:32.802Z,649.48
2018-06-29T05:10:34.787Z,630.92
2018-06-29T05:12:36.781Z,635.05
2018-06-29T05:14:38.755Z,633.92
2018-06-29T05:16:40.742Z,637.17
2018-06-29T05:18:42.725Z,642.70
2018-06-29T05:20:44.710Z,632.17
2018-06-29T05:22:46.671Z,636.67
2018-06-29T05:24:48.641Z,639.87
2018-06-29T05:26:50.646Z,639.13
2018-06-29T05:28:52.619Z,630.87
2018-06-29T05:30:54.596Z,628.60
2018-06-29T05:32:56.590Z,627.15
2018-06-29T05:34:58.559Z,630.87
2018-06-29T05:37:00.537Z,630.75
2018-06-29T05:39:02.514Z,619.73
2018-06-29T05:41:04.489Z,621.48
2018-06-29T05:43:06.469Z,627.90
2018-06-29T05:45:08.442Z,621.95
2018-06-29T05:47:10.430Z,620.83
2018-06-29T05:49:12.521Z,617.00
2018-06-29T05:51:14.465Z,611.60
2018-06-29T05:53:16.443Z,607.02
2018-06-29T05:55:18.413Z,604.10
2018-06-29T05:57:20.416Z,600.53
2018-06-29T05:59:22.378Z,609.17
2018-06-29T06:01:24.354Z,601.25
2018-06-29T06:03:26.320Z,601.95
2018-06-29T06:05:28.290Z,606.92
2018-06-29T06:07:30.274Z,604.80
2018-06-29T06:09:32.238Z,597.52
2018-06-29T06:11:34.201Z,594.80
2018-06-29T06:13:36.189Z,598.65
2018-06-29T06:15:38.192Z,587.55
2018-06-29T06:17:40.165Z,574.38
2018-06-29T06:19:42.120Z,583.45
2018-06-29T06:21:44.094Z,581.20
2018-06-29T06:23:46.066Z,673.65
2018-06-29T06:25:48.056Z,293.37
2018-06-29T06:27:50.046Z,236.70
2018-06-29T06:29:52.006Z,207.20
2018-06-29T06:31:53.979Z,145.20
2018-06-29T06:33:55.988Z,142.65
2018-06-29T06:35:58.053Z,96.80
2018-06-29T06:38:00.024Z,97.35
2018-06-29T06:40:01.986Z,132.43
2018-06-29T06:42:03.956Z,82.40
2018-06-29T06:44:05.936Z,69.87
2018-06-29T06:46:07.904Z,57.03
2018-06-29T06:48:09.848Z,58.02
2018-06-29T06:50:11.816Z,144.97
2018-06-29T06:52:13.815Z,123.13
2018-06-29T06:54:15.760Z,142.43
2018-06-29T06:56:17.734Z,81.00
2018-06-29T06:58:20.106Z,83.75
2018-06-29T07:00:21.947Z,144.65
2018-06-29T07:02:23.919Z,242.75
2018-06-29T07:04:25.906Z,283.20
2018-06-29T07:06:27.900Z,308.38
2018-06-29T07:08:29.893Z,335.90
2018-06-29T07:10:31.868Z,325.62
2018-06-29T07:12:33.906Z,519.67
2018-06-29T07:14:35.840Z,344.65
2018-06-29T07:16:37.817Z,163.75
2018-06-29T07:18:39.798Z,158.55
2018-06-29T07:20:41.793Z,174.42
2018-06-29T07:22:43.791Z,89.65
2018-06-29T07:24:45.765Z,105.05
2018-06-29T07:26:47.742Z,103.97
2018-06-29T07:28:49.697Z,84.05
2018-06-29T07:30:51.678Z,115.12
2018-06-29T07:32:53.643Z,132.82
2018-06-29T07:34:55.644Z,216.30
2018-06-29T07:36:57.617Z,321.85
2018-06-29T07:38:59.589Z,260.50
2018-06-29T07:41:01.560Z,323.95
2018-06-29T07:43:03.599Z,314.72
2018-06-29T07:45:05.569Z,345.30
2018-06-29T07:47:07.556Z,407.35
2018-06-29T07:49:09.532Z,426.80
2018-06-29T07:51:11.487Z,425.30
2018-06-29T07:53:13.476Z,423.15
2018-06-29T07:55:15.443Z,417.33
2018-06-29T07:57:17.425Z,419.23
2018-06-29T07:59:19.439Z,449.52
2018-06-29T08:01:21.397Z,425.48
2018-06-29T08:03:23.359Z,422.05
2018-06-29T08:05:25.362Z,410.45
2018-06-29T08:07:27.331Z,280.05
2018-06-29T08:09:29.300Z,236.85
2018-06-29T08:11:31.274Z,243.10
2018-06-29T08:13:33.273Z,264.05
2018-06-29T08:15:35.245Z,273.02
2018-06-29T08:17:37.218Z,888.85
2018-06-29T08:19:39.177Z,1999.90
2018-06-29T08:21:41.194Z,398.95
2018-06-29T08:23:43.193Z,371.35
2018-06-29T08:25:45.197Z,401.35
2018-06-29T08:27:47.194Z,352.00
2018-06-29T08:29:49.157Z,293.25
2018-06-29T08:31:51.151Z,275.85
2018-06-29T08:33:53.141Z,265.62
2018-06-29T08:35:55.111Z,498.70
2018-06-29T08:37:57.090Z,477.13
2018-06-29T08:39:59.071Z,319.98
2018-06-29T08:42:01.052Z,295.95
2018-06-29T08:44:03.026Z,273.82
2018-06-29T08:46:05.006Z,288.02
2018-06-29T08:48:06.991Z,268.00
2018-06-29T08:50:08.971Z,272.85
2018-06-29T08:52:10.994Z,715.42
2018-06-29T08:54:12.928Z,284.50
2018-06-29T08:56:14.906Z,254.38
2018-06-29T08:58:16.957Z,255.05
2018-06-29T09:00:18.906Z,242.77
2018-06-29T09:02:20.888Z,234.52
2018-06-29T09:04:22.874Z,243.60
2018-06-29T09:06:24.837Z,257.65
2018-06-29T09:08:26.813Z,462.98
2018-06-29T09:10:28.842Z,223.13
2018-06-29T09:12:30.840Z,236.12
2018-06-29T09:14:32.796Z,220.05
2018-06-29T09:16:34.762Z,235.45
2018-06-29T09:18:36.745Z,215.75
2018-06-29T09:20:38.717Z,195.92
2018-06-29T09:22:40.677Z,413.35
2018-06-29T09:24:42.661Z,800.62
2018-06-29T09:26:44.631Z,276.45
2018-06-29T09:28:46.613Z,285.00
2018-06-29T09:30:48.589Z,224.75
2018-06-29T09:32:50.579Z,287.63
2018-06-29T09:34:52.544Z,297.88
2018-06-29T09:36:54.529Z,1140.00
2018-06-29T09:38:56.502Z,340.02
2018-06-29T09:40:58.490Z,322.27
2018-06-29T09:43:00.471Z,323.32
2018-06-29T09:45:02.442Z,348.73
2018-06-29T09:47:04.431Z,349.80
2018-06-29T09:49:06.407Z,359.92
2018-06-29T09:51:08.392Z,360.50
2018-06-29T09:53:10.360Z,341.50
2018-06-29T09:55:12.345Z,371.27
2018-06-29T09:57:14.313Z,354.93
2018-06-29T09:59:16.293Z,306.57
2018-06-29T10:01:18.271Z,479.85
2018-06-29T10:03:20.217Z,582.45
2018-06-29T10:05:22.209Z,320.17
2018-06-29T10:07:24.159Z,296.93
2018-06-29T10:09:26.145Z,293.23
2018-06-29T10:11:28.113Z,276.82
2018-06-29T10:13:30.089Z,256.00
2018-06-29T10:15:32.096Z,281.50
2018-06-29T10:17:34.054Z,350.85
2018-06-29T10:19:36.063Z,261.23
2018-06-29T10:21:38.019Z,260.10
2018-06-29T10:23:40.007Z,217.10
2018-06-29T10:25:41.991Z,221.03
2018-06-29T10:27:43.960Z,208.43
2018-06-29T10:29:45.942Z,189.50
2018-06-29T10:31:47.915Z,158.30
2018-06-29T10:33:49.883Z,158.27
2018-06-29T10:35:51.932Z,129.50
2018-06-29T10:37:53.848Z,143.17
2018-06-29T10:39:55.916Z,615.77
2018-06-29T10:41:57.877Z,166.77
2018-06-29T10:44:00.227Z,125.87
2018-06-29T10:46:02.077Z,137.88
2018-06-29T10:48:04.049Z,137.72
2018-06-29T10:50:06.047Z,133.05
2018-06-29T10:52:08.007Z,121.82
2018-06-29T10:54:09.992Z,111.20
2018-06-29T10:56:11.976Z,96.65
2018-06-29T10:58:13.948Z,85.75
2018-06-29T11:00:15.958Z,81.57
2018-06-29T11:02:17.906Z,66.53
2018-06-29T11:04:19.888Z,61.58
2018-06-29T11:06:21.837Z,57.35
2018-06-29T11:10:26.165Z,52.83
2018-06-29T11:12:28.157Z,54.77
2018-06-29T11:14:30.144Z,51.50
2018-06-29T11:16:32.136Z,53.85
2018-06-29T11:18:34.096Z,47.88
2018-06-29T11:20:36.073Z,47.78
2018-06-29T11:22:38.091Z,49.42
2018-06-29T11:24:40.019Z,48.73
2018-06-29T11:26:41.968Z,45.67
2018-06-29T11:28:43.934Z,46.75
2018-06-29T11:30:45.948Z,47.25
2018-06-29T11:32:48.349Z,57.05
2018-06-29T11:34:50.182Z,176.72
2018-06-29T11:36:52.170Z,162.15
2018-06-29T11:38:54.108Z,249.67
2018-06-29T11:40:56.123Z,132.60
2018-06-29T11:42:58.100Z,220.97
2018-06-29T11:45:00.078Z,174.87
2018-06-29T11:47:02.055Z,198.07
2018-06-29T11:49:04.060Z,170.75
2018-06-29T11:51:06.034Z,176.78
2018-06-29T11:53:08.010Z,202.43
2018-06-29T11:55:09.978Z,180.35
2018-06-29T11:57:11.982Z,194.20
2018-06-29T11:59:13.985Z,180.75
2018-06-29T12:01:15.988Z,366.70
2018-06-29T12:03:17.992Z,316.95
2018-06-29T12:05:19.956Z,203.92
2018-06-29T12:07:21.939Z,191.37
2018-06-29T12:09:23.901Z,168.45
2018-06-29T12:11:25.886Z,137.32
2018-06-29T12:13:27.908Z,135.12
2018-06-29T12:15:29.866Z,128.97
2018-06-29T12:17:31.860Z,172.25
2018-06-29T12:19:33.834Z,135.50
2018-06-29T12:21:35.804Z,163.92
2018-06-29T12:23:37.789Z,158.12
2018-06-29T12:25:39.762Z,125.27
2018-06-29T12:27:41.740Z,124.67
2018-06-29T12:29:43.714Z,530.55
2018-06-29T12:31:45.676Z,267.57
2018-06-29T12:33:47.651Z,315.35
2018-06-29T12:35:49.613Z,234.87
2018-06-29T12:37:51.596Z,198.23
2018-06-29T12:39:53.571Z,204.00
2018-06-29T12:41:55.541Z,207.35
2018-06-29T12:43:57.520Z,197.80
2018-06-29T12:45:59.533Z,223.95
2018-06-29T12:48:01.479Z,223.50
2018-06-29T12:50:03.452Z,233.53
2018-06-29T12:52:05.428Z,239.10
2018-06-29T12:54:07.390Z,227.28
2018-06-29T12:56:09.379Z,239.63
2018-06-29T12:58:11.350Z,229.53
2018-06-29T13:00:13.324Z,217.75
2018-06-29T13:02:15.282Z,212.57
2018-06-29T13:04:17.254Z,212.70
2018-06-29T13:06:19.250Z,201.07
2018-06-29T13:08:21.211Z,187.95
2018-06-29T13:10:23.188Z,199.00
2018-06-29T13:12:25.189Z,227.20
2018-06-29T13:14:27.151Z,229.82
2018-06-29T13:16:29.189Z,248.80
2018-06-29T13:18:31.137Z,240.68
2018-06-29T13:20:33.144Z,233.28
2018-06-29T13:22:35.109Z,261.18
2018-06-29T13:24:37.081Z,244.80
2018-06-29T13:26:39.048Z,211.80
2018-06-29T13:28:41.041Z,214.48
2018-06-29T13:30:43.065Z,212.12
2018-06-29T13:32:44.985Z,188.93
2018-06-29T13:34:46.963Z,170.28
2018-06-29T13:36:48.966Z,155.93
2018-06-29T13:38:50.918Z,143.15
2018-06-29T13:40:52.927Z,176.30
2018-06-29T13:42:54.888Z,99.07
2018-06-29T13:44:56.858Z,116.37
2018-06-29T13:46:58.837Z,100.47
2018-06-29T13:49:00.806Z,80.12
2018-06-29T13:51:02.854Z,121.77
2018-06-29T13:53:04.823Z,283.93
2018-06-29T13:55:06.803Z,110.57
2018-06-29T13:57:08.787Z,89.52
2018-06-29T13:59:11.605Z,68.90
2018-06-29T14:01:13.578Z,1233.25
2018-06-29T14:03:15.570Z,316.45
2018-06-29T14:05:17.533Z,120.47
2018-06-29T14:07:19.490Z,96.78
2018-06-29T14:09:21.467Z,266.80
2018-06-29T14:11:23.608Z,1052.93
2018-06-29T14:13:25.619Z,283.45
2018-06-29T14:15:27.598Z,109.32
2018-06-29T14:17:29.601Z,90.42
2018-06-29T14:19:31.567Z,69.65
2018-06-29T14:21:33.555Z,607.88
2018-06-29T14:23:35.539Z,207.83
2018-06-29T14:25:37.506Z,122.70
2018-06-29T14:27:39.496Z,115.77
2018-06-29T14:29:41.451Z,78.75
2018-06-29T14:31:43.436Z,54.67
2018-06-29T14:33:45.412Z,59.13
2018-06-29T14:35:47.391Z,768.27
2018-06-29T14:37:49.366Z,451.70
2018-06-29T14:39:51.366Z,160.88
2018-06-29T14:41:53.322Z,84.15
2018-06-29T14:43:55.322Z,56.02
2018-06-29T14:45:57.296Z,58.92
2018-06-29T14:47:59.620Z,33.48
2018-06-29T14:50:01.602Z,1078.42
2018-06-29T14:52:03.574Z,385.50
2018-06-29T14:54:05.542Z,122.25
2018-06-29T14:56:07.506Z,213.82
2018-06-29T14:58:09.530Z,511.90
2018-06-29T15:00:11.508Z,202.03
2018-06-29T15:02:13.496Z,125.75
2018-06-29T15:04:15.513Z,94.05
2018-06-29T15:06:17.468Z,124.18
2018-06-29T15:08:19.476Z,324.73
2018-06-29T15:10:21.457Z,401.40
2018-06-29T15:12:23.439Z,840.53
2018-06-29T15:14:25.546Z,1167.33
2018-06-29T15:16:27.547Z,102.15
2018-06-29T15:18:29.597Z,132.03
2018-06-29T15:20:31.559Z,79.47
2018-06-29T15:22:33.515Z,62.38
2018-06-29T15:24:35.547Z,52.98
2018-06-29T15:26:37.508Z,288.87
2018-06-29T15:28:39.485Z,202.03
2018-06-29T15:30:41.589Z,241.35
2018-06-29T15:32:43.528Z,67.55
2018-06-29T15:34:45.520Z,52.65
2018-06-29T15:36:47.490Z,46.60
2018-06-29T15:38:49.446Z,34.38
2018-06-29T15:40:51.418Z,60.45
2018-06-29T15:42:53.403Z,73.97
2018-06-29T15:44:55.381Z,183.10
2018-06-29T15:46:57.384Z,226.40
2018-06-29T15:48:59.363Z,147.22
2018-06-29T15:51:01.332Z,94.58
2018-06-29T15:53:03.316Z,65.22
2018-06-29T15:55:05.292Z,37.83
2018-06-29T15:57:07.290Z,25.77
2018-06-29T15:59:09.287Z,24.35
2018-06-29T16:01:11.229Z,19.92
2018-06-29T16:03:13.214Z,48.10
2018-06-29T16:05:15.186Z,301.40
2018-06-29T16:07:17.182Z,190.25
2018-06-29T16:09:19.172Z,95.03
2018-06-29T16:11:21.146Z,77.12
2018-06-29T16:13:23.106Z,45.92
2018-06-29T16:15:25.068Z,42.98
2018-06-29T16:17:27.003Z,29.75
2018-06-29T16:19:28.976Z,22.87
2018-06-29T16:21:31.059Z,19.30
2018-06-29T16:23:32.985Z,19.20
2018-06-29T16:25:34.970Z,30.08
2018-06-29T16:27:36.946Z,40.00
2018-06-29T16:29:38.916Z,58.15
2018-06-29T16:31:40.888Z,64.45
2018-06-29T16:33:42.866Z,65.57
2018-06-29T16:35:44.812Z,51.85
2018-06-29T16:37:46.798Z,48.30
2018-06-29T16:39:48.799Z,39.35
2018-06-29T16:41:50.767Z,30.00
2018-06-29T16:43:52.763Z,24.05
2018-06-29T16:45:54.719Z,20.62
2018-06-29T16:47:56.677Z,18.45
2018-06-29T16:49:58.756Z,13.05
2018-06-29T16:52:00.709Z,11.78
2018-06-29T16:54:02.665Z,95.92
2018-06-29T16:56:04.670Z,190.30
2018-06-29T16:58:06.629Z,117.00
2018-06-29T17:00:08.611Z,67.67
2018-06-29T17:02:10.585Z,50.83
2018-06-29T17:04:12.568Z,37.53
2018-06-29T17:06:14.543Z,30.32
2018-06-29T17:08:16.536Z,28.55
2018-06-29T17:10:18.521Z,22.80
2018-06-29T17:12:20.515Z,20.35
2018-06-29T17:14:22.479Z,18.07
2018-06-29T17:16:24.449Z,13.98
2018-06-29T17:18:26.454Z,12.78
2018-06-29T17:20:28.434Z,13.28
2018-06-29T17:22:30.465Z,10.32
2018-06-29T17:24:32.386Z,8.00
2018-06-29T17:26:34.363Z,11.12
2018-06-29T17:28:36.319Z,43.45
2018-06-29T17:30:38.290Z,55.05
2018-06-29T17:32:40.283Z,49.53
2018-06-29T17:34:42.251Z,49.03
2018-06-29T17:36:44.243Z,57.50
2018-06-29T17:38:46.235Z,50.95
2018-06-29T17:40:48.230Z,36.98
2018-06-29T17:42:50.218Z,31.93
2018-06-29T17:44:52.206Z,21.30
2018-06-29T17:46:54.872Z,21.20
2018-06-29T17:48:56.819Z,17.90
2018-06-29T17:50:58.803Z,15.18
2018-06-29T17:53:00.786Z,12.20
2018-06-29T17:55:02.791Z,13.72
2018-06-29T17:57:04.760Z,10.00
2018-06-29T17:59:06.703Z,9.83
2018-06-29T18:01:08.672Z,9.68
2018-06-29T18:03:10.646Z,8.55
2018-06-29T18:05:12.665Z,8.68
2018-06-29T18:07:14.582Z,10.05
2018-06-29T18:09:16.566Z,10.23
2018-06-29T18:11:18.537Z,8.38
2018-06-29T18:13:20.650Z,16.57
2018-06-29T18:15:22.577Z,41.98
2018-06-29T18:17:24.541Z,57.60
2018-06-29T18:19:26.514Z,54.35
2018-06-29T18:21:28.555Z,41.18
2018-06-29T18:23:30.878Z,42.50
2018-06-29T18:25:32.947Z,46.35
2018-06-29T18:27:35.183Z,25.85
2018-06-29T18:29:37.522Z,22.73
2018-06-29T18:31:39.860Z,23.60
2018-06-29T18:33:42.261Z,28.27
2018-06-29T18:35:44.646Z,21.12
2018-06-29T18:37:47.340Z,20.77
2018-06-29T18:39:49.731Z,20.43
2018-06-29T18:41:52.021Z,22.87
2018-06-29T18:43:54.515Z,20.12
2018-06-29T18:45:57.008Z,18.52
2018-06-29T18:47:59.505Z,18.05
2018-06-29T18:50:01.890Z,17.55
2018-06-29T18:52:04.294Z,18.50
2018-06-29T18:54:06.669Z,15.75
2018-06-29T18:56:09.167Z,16.12
2018-06-29T18:58:11.556Z,16.05
2018-06-29T19:00:13.842Z,16.10
2018-06-29T19:02:16.233Z,16.00
2018-06-29T19:04:18.724Z,14.33
2018-06-29T19:06:21.116Z,13.58
2018-06-29T19:08:23.510Z,13.20
2018-06-29T19:10:25.797Z,10.98
2018-06-29T19:12:28.294Z,12.15
2018-06-29T19:14:30.781Z,10.40
2018-06-29T19:16:33.173Z,14.13
2018-06-29T19:18:35.780Z,12.23
2018-06-29T19:20:38.362Z,12.58
2018-06-29T19:22:40.650Z,11.28
2018-06-29T19:24:43.046Z,12.13
2018-06-29T19:26:45.533Z,10.63
2018-06-29T19:28:47.926Z,11.55
2018-06-29T19:30:50.318Z,10.60
2018-06-29T19:32:52.835Z,10.60
2018-06-29T19:34:55.300Z,10.13
2018-06-29T19:36:57.590Z,10.23
2018-06-29T19:39:00.138Z,9.28
2018-06-29T19:41:02.677Z,9.50
2018-06-29T19:43:05.067Z,9.80
2018-06-29T19:45:07.560Z,8.40
2018-06-29T19:47:09.953Z,8.23
2018-06-29T19:49:12.450Z,7.17
2018-06-29T19:51:14.937Z,11.12
2018-06-29T19:53:17.326Z,7.60
2018-06-29T19:55:19.616Z,7.75
2018-06-29T19:57:21.655Z,7.58
2018-06-29T19:59:23.623Z,7.22
2018-06-29T20:01:25.583Z,6.47
2018-06-29T20:03:27.582Z,6.53
2018-06-29T20:05:29.626Z,7.55
2018-06-29T20:07:31.568Z,8.43
2018-06-29T20:09:33.545Z,5.70
2018-06-29T20:11:35.526Z,6.92
2018-06-29T20:13:37.488Z,6.58
2018-06-29T20:15:39.491Z,8.03
2018-06-29T20:17:41.462Z,7.10
2018-06-29T20:19:43.425Z,6.58
2018-06-29T20:21:45.408Z,9.53
2018-06-29T20:23:47.379Z,8.88
2018-06-29T20:25:49.340Z,7.53
2018-06-29T20:27:51.400Z,10.25
2018-06-29T20:29:53.368Z,6.97
2018-06-29T20:31:55.725Z,6.70
2018-06-29T20:33:57.575Z,6.17
2018-06-29T20:35:59.944Z,8.80
2018-06-29T20:38:02.321Z,6.08
2018-06-29T20:40:04.146Z,6.62
2018-06-29T20:42:06.108Z,6.75
2018-06-29T20:44:08.060Z,5.75
2018-06-29T20:46:10.028Z,8.75
2018-06-29T20:48:11.977Z,6.30
2018-06-29T20:50:13.933Z,5.92
2018-06-29T20:52:15.926Z,6.62
2018-06-29T20:54:17.876Z,6.47
2018-06-29T20:56:19.850Z,8.00
2018-06-29T20:58:21.817Z,6.65
2018-06-29T21:00:23.822Z,8.05
2018-06-29T21:02:25.789Z,8.13
2018-06-29T21:04:27.779Z,6.00
2018-06-29T21:06:29.788Z,5.25
2018-06-29T21:08:31.785Z,6.62
2018-06-29T21:10:33.843Z,9.75
2018-06-29T21:12:36.169Z,7.20
2018-06-29T21:14:38.145Z,6.87
2018-06-29T21:16:40.113Z,7.33
2018-06-29T21:18:42.468Z,7.87
2018-06-29T21:20:44.425Z,5.78
2018-06-29T21:22:46.405Z,6.97
2018-06-29T21:24:48.363Z,5.97
2018-06-29T21:26:50.346Z,6.85
2018-06-29T21:28:52.309Z,5.85
2018-06-29T21:30:54.268Z,5.85
2018-06-29T21:32:56.225Z,5.58
2018-06-29T21:34:58.197Z,7.17
2018-06-29T21:37:00.161Z,5.62
2018-06-29T21:39:02.133Z,6.37
2018-06-29T21:41:04.088Z,4.85
2018-06-29T21:43:06.044Z,5.53
2018-06-29T21:45:08.418Z,4.42
2018-06-29T21:47:10.284Z,4.90
2018-06-29T21:49:12.597Z,4.92
2018-06-29T21:51:14.619Z,4.70
2018-06-29T21:53:16.588Z,5.42
2018-06-29T21:55:18.545Z,4.22
2018-06-29T21:57:20.519Z,5.42
2018-06-29T21:59:22.482Z,5.80
2018-06-29T22:01:24.453Z,5.67
2018-06-29T22:03:26.444Z,4.15
2018-06-29T22:05:28.409Z,6.67
2018-06-29T22:07:30.365Z,5.33
2018-06-29T22:09:32.329Z,5.00
2018-06-29T22:11:34.300Z,4.42
2018-06-29T22:13:36.667Z,8.50
2018-06-29T22:15:38.522Z,4.45
2018-06-29T22:17:40.474Z,7.03
2018-06-29T22:19:42.454Z,6.25
2018-06-29T22:21:44.428Z,4.53
2018-06-29T22:23:46.401Z,4.90
2018-06-29T22:25:48.367Z,5.37
2018-06-29T22:27:50.371Z,4.20
2018-06-29T22:29:52.311Z,4.12
2018-06-29T22:31:54.269Z,4.12
2018-06-29T22:33:56.267Z,4.15
2018-06-29T22:35:58.236Z,5.17
2018-06-29T22:38:00.177Z,4.15
2018-06-29T22:40:02.175Z,5.00
2018-06-29T22:42:04.121Z,4.80
2018-06-29T22:44:06.069Z,3.92
2018-06-29T22:46:08.065Z,5.95
2018-06-29T22:48:10.001Z,4.05
2018-06-29T22:50:11.946Z,4.65
2018-06-29T22:52:13.923Z,4.25
2018-06-29T22:54:15.896Z,4.60
2018-06-29T22:56:17.849Z,3.85
2018-06-29T22:58:19.830Z,5.62
2018-06-29T23:00:21.795Z,5.70
2018-06-29T23:02:23.776Z,3.60
2018-06-29T23:04:25.737Z,4.65
2018-06-29T23:06:27.697Z,4.50
2018-06-29T23:08:29.781Z,3.85
2018-06-29T23:10:31.725Z,7.47
2018-06-29T23:12:33.681Z,3.72
2018-06-29T23:14:35.647Z,3.60
2018-06-29T23:16:37.623Z,3.70
2018-06-29T23:18:39.573Z,5.17
2018-06-29T23:20:41.587Z,4.08
2018-06-29T23:22:43.529Z,4.00
2018-06-29T23:24:45.491Z,4.70
2018-06-29T23:26:47.473Z,3.80
2018-06-29T23:28:49.423Z,4.42
2018-06-29T23:30:51.393Z,3.77
2018-06-29T23:32:53.352Z,4.85
2018-06-29T23:34:55.303Z,3.90
2018-06-29T23:36:57.413Z,3.60
2018-06-29T23:38:59.368Z,3.75
2018-06-29T23:41:01.362Z,4.20
2018-06-29T23:43:03.314Z,6.72
2018-06-29T23:45:05.272Z,4.47
2018-06-29T23:47:07.244Z,4.90
2018-06-29T23:49:09.197Z,3.72
2018-06-29T23:51:11.172Z,4.05
2018-06-29T23:53:13.124Z,5.47
2018-06-29T23:55:15.070Z,5.92
2018-06-29T23:57:17.028Z,3.65
2018-06-29T23:59:18.990Z,3.52
